CMA CGM Castilla — V7LZ7 — position and weather

sailwx.info

Track history (hours):
 
Tides and Currents Weather Stations Pressure Air Temp Water Temp Dewpoint Dewpoint Depression Visibility Wind Speed Wind Dir Waves Ship Positions

CMA CGM Castilla

Last reported at 2015-May-23 12:11 UTC. Time now 2015-May-24 09:23 UTC.
Position N 26°09' W 079°13'.

Length 194 m; beam 28.2 m; draft 11.5 m.

Type: Ship (hazmat cat A). MMSI: 538090285.

Date/timePositionNaut miles runAvg speedWind from/ knotsBaromVisibWave heightAir tempDewpointWater temp
2015-May-23 12:11N 26°09' W 079°13'1016.5
2015-May-23 11:34N 26°03' W 079°23'1918.6
2015-May-23 10:33N 25°44' W 079°26'  
2015-May-20 19:33N 29°24' W 094°49'1313.0
2015-May-20 18:33N 29°35' W 094°56'4 3.7
2015-May-20 17:32N 29°37' W 095°01'0 0.0
2015-May-20 16:23N 29°37' W 095°01'0 0.0
2015-May-20 15:32N 29°37' W 095°01'0 0.0
2015-May-20 14:32N 29°37' W 095°01'0 0.0
2015-May-20 13:32N 29°37' W 095°01'0 0.0
2015-May-20 12:32N 29°37' W 095°01'0 0.0
2015-May-20 11:32N 29°37' W 095°01'0 0.0
2015-May-20 10:32N 29°37' W 095°01'0 0.0
2015-May-20 09:32N 29°37' W 095°01'0 0.0
2015-May-20 08:32N 29°37' W 095°01'0 0.0
2015-May-20 07:32N 29°37' W 095°01'0 0.0
2015-May-20 06:32N 29°37' W 095°01'0 0.0
2015-May-20 05:32N 29°37' W 095°01'0 0.0
2015-May-20 04:32N 29°37' W 095°01'0 0.0
2015-May-20 03:29N 29°37' W 095°01'0 0.0
2015-May-20 02:32N 29°37' W 095°01'1 0.6
2015-May-20 01:34N 29°37' W 095°01'8 7.8
2015-May-20 00:33N 29°32' W 094°54'1312.9
2015-May-19 23:31N 29°21' W 094°46'3 0.3
2015-May-19 15:15N 29°21' W 094°43'  
2015-May-16 07:28N 20°19' W 096°19'1414.9
2015-May-16 06:31N 20°07' W 096°12'1514.8
2015-May-16 05:32N 19°54' W 096°05'1714.4
2015-May-16 04:23N 19°39' W 095°57'1214.4
2015-May-16 03:34N 19°27' W 096°01'1313.3
2015-May-16 02:33N 19°14' W 095°59'9 8.8
2015-May-16 01:34N 19°13' W 096°08'0 0.2
2015-May-16 00:31N 19°13' W 096°08'0 0.0
2015-May-15 23:31N 19°13' W 096°08'0 0.0
2015-May-15 22:31N 19°13' W 096°08'0 0.0
2015-May-15 21:31N 19°13' W 096°08'0 0.0
2015-May-15 20:31N 19°13' W 096°08'0 0.0
2015-May-15 19:31N 19°13' W 096°08'0 0.0
2015-May-15 18:31N 19°13' W 096°08'0 0.0
2015-May-15 17:31N 19°13' W 096°08'0 0.0
2015-May-15 16:31N 19°13' W 096°08'0 0.0
2015-May-15 15:31N 19°13' W 096°08'0 0.0
2015-May-15 14:31N 19°13' W 096°08'0 0.0
2015-May-15 13:31N 19°13' W 096°08'0 0.0
2015-May-15 12:31N 19°13' W 096°08'0 0.5
2015-May-15 11:34N 19°12' W 096°08'9 8.8
2015-May-15 10:33N 19°13' W 095°59'1312.5
2015-May-15 09:33N 19°14' W 095°46'  
Track history (hours):
 
Tides and Currents Weather Stations Pressure Air Temp Water Temp Dewpoint Dewpoint Depression Visibility Wind Speed Wind Dir Waves Ship Positions

CMA CGM Castilla

Last reported at 2015-May-23 12:11 UTC. Time now 2015-May-24 09:23 UTC.
Position N 26°09' W 079°13'.

Length 194 m; beam 28.2 m; draft 11.5 m.

Type: Ship (hazmat cat A). MMSI: 538090285.

Date/timePositionNaut miles runAvg speedWind from/ knotsBaromVisibWave heightAir tempDewpointWater temp
2015-May-23 12:11N 26°09' W 079°13'1016.5
2015-May-23 11:34N 26°03' W 079°23'1918.6
2015-May-23 10:33N 25°44' W 079°26'  
2015-May-20 19:33N 29°24' W 094°49'1313.0
2015-May-20 18:33N 29°35' W 094°56'4 3.7
2015-May-20 17:32N 29°37' W 095°01'0 0.0
2015-May-20 16:23N 29°37' W 095°01'0 0.0
2015-May-20 15:32N 29°37' W 095°01'0 0.0
2015-May-20 14:32N 29°37' W 095°01'0 0.0
2015-May-20 13:32N 29°37' W 095°01'0 0.0
2015-May-20 12:32N 29°37' W 095°01'0 0.0
2015-May-20 11:32N 29°37' W 095°01'0 0.0
2015-May-20 10:32N 29°37' W 095°01'0 0.0
2015-May-20 09:32N 29°37' W 095°01'0 0.0
2015-May-20 08:32N 29°37' W 095°01'0 0.0
2015-May-20 07:32N 29°37' W 095°01'0 0.0
2015-May-20 06:32N 29°37' W 095°01'0 0.0
2015-May-20 05:32N 29°37' W 095°01'0 0.0
2015-May-20 04:32N 29°37' W 095°01'0 0.0
2015-May-20 03:29N 29°37' W 095°01'0 0.0
2015-May-20 02:32N 29°37' W 095°01'1 0.6
2015-May-20 01:34N 29°37' W 095°01'8 7.8
2015-May-20 00:33N 29°32' W 094°54'1312.9
2015-May-19 23:31N 29°21' W 094°46'3 0.3
2015-May-19 15:15N 29°21' W 094°43'  
2015-May-16 07:28N 20°19' W 096°19'1414.9
2015-May-16 06:31N 20°07' W 096°12'1514.8
2015-May-16 05:32N 19°54' W 096°05'1714.4
2015-May-16 04:23N 19°39' W 095°57'1214.4
2015-May-16 03:34N 19°27' W 096°01'1313.3
2015-May-16 02:33N 19°14' W 095°59'9 8.8
2015-May-16 01:34N 19°13' W 096°08'0 0.2
2015-May-16 00:31N 19°13' W 096°08'0 0.0
2015-May-15 23:31N 19°13' W 096°08'0 0.0
2015-May-15 22:31N 19°13' W 096°08'0 0.0
2015-May-15 21:31N 19°13' W 096°08'0 0.0
2015-May-15 20:31N 19°13' W 096°08'0 0.0
2015-May-15 19:31N 19°13' W 096°08'0 0.0
2015-May-15 18:31N 19°13' W 096°08'0 0.0
2015-May-15 17:31N 19°13' W 096°08'0 0.0
2015-May-15 16:31N 19°13' W 096°08'0 0.0
2015-May-15 15:31N 19°13' W 096°08'0 0.0
2015-May-15 14:31N 19°13' W 096°08'0 0.0
2015-May-15 13:31N 19°13' W 096°08'0 0.0
2015-May-15 12:31N 19°13' W 096°08'0 0.5
2015-May-15 11:34N 19°12' W 096°08'9 8.8
2015-May-15 10:33N 19°13' W 095°59'1312.5
2015-May-15 09:33N 19°14' W 095°46'  

Dump ship's entire track history